sensor_id;sensor_type;location;lat;lon;timestamp;pressure;altitude;pressure_sealevel;temperature;humidity
68594;BME280;55563;52.416;13.548;2023-06-22T00:00:10;101433.78;;;20.55;100.00
68594;BME280;55563;52.416;13.548;2023-06-22T00:02:23;101437.91;;;20.39;100.00
68594;BME280;55563;52.416;13.548;2023-06-22T00:04:24;101442.16;;;20.62;100.00
68594;BME280;55563;52.416;13.548;2023-06-22T00:06:25;101448.25;;;20.63;100.00
68594;BME280;55563;52.416;13.548;2023-06-22T00:08:26;101445.13;;;20.61;100.00
68594;BME280;55563;52.416;13.548;2023-06-22T00:10:26;101442.31;;;20.66;100.00
68594;BME280;55563;52.416;13.548;2023-06-22T00:12:27;101449.78;;;20.55;100.00
68594;BME280;55563;52.416;13.548;2023-06-22T00:14:28;101449.81;;;20.19;100.00
68594;BME280;55563;52.416;13.548;2023-06-22T00:16:28;101441.88;;;20.28;100.00
68594;BME280;55563;52.416;13.548;2023-06-22T00:18:29;101452.38;;;20.38;100.00
68594;BME280;55563;52.416;13.548;2023-06-22T00:20:31;101457.69;;;20.38;100.00
68594;BME280;55563;52.416;13.548;2023-06-22T00:22:33;101457.97;;;20.14;100.00
68594;BME280;55563;52.416;13.548;2023-06-22T00:24:38;101452.19;;;20.21;100.00
68594;BME280;55563;52.416;13.548;2023-06-22T00:26:39;101455.56;;;20.49;100.00
68594;BME280;55563;52.416;13.548;2023-06-22T00:28:44;101465.38;;;20.39;100.00
68594;BME280;55563;52.416;13.548;2023-06-22T00:30:44;101471.59;;;20.49;100.00
68594;BME280;55563;52.416;13.548;2023-06-22T00:32:46;101478.03;;;20.48;100.00
68594;BME280;55563;52.416;13.548;2023-06-22T00:34:48;101483.28;;;20.39;100.00
68594;BME280;55563;52.416;13.548;2023-06-22T00:36:50;101476.88;;;20.04;100.00
68594;BME280;55563;52.416;13.548;2023-06-22T00:38:52;101481.72;;;20.24;100.00
68594;BME280;55563;52.416;13.548;2023-06-22T00:40:52;101479.78;;;19.80;100.00
68594;BME280;55563;52.416;13.548;2023-06-22T00:42:55;101476.59;;;19.92;100.00
68594;BME280;55563;52.416;13.548;2023-06-22T00:44:56;101479.09;;;19.88;100.00
68594;BME280;55563;52.416;13.548;2023-06-22T00:46:58;101485.69;;;19.91;100.00
68594;BME280;55563;52.416;13.548;2023-06-22T00:49:01;101474.66;;;19.70;100.00
68594;BME280;55563;52.416;13.548;2023-06-22T00:51:02;101465.25;;;19.86;100.00
68594;BME280;55563;52.416;13.548;2023-06-22T00:53:05;101477.72;;;19.77;100.00
68594;BME280;55563;52.416;13.548;2023-06-22T00:55:09;101485.31;;;19.84;100.00
68594;BME280;55563;52.416;13.548;2023-06-22T00:57:10;101483.75;;;19.69;100.00
68594;BME280;55563;52.416;13.548;2023-06-22T00:59:12;101488.06;;;19.92;100.00
68594;BME280;55563;52.416;13.548;2023-06-22T01:01:13;101481.25;;;19.86;100.00
68594;BME280;55563;52.416;13.548;2023-06-22T01:03:14;101486.00;;;19.89;100.00
68594;BME280;55563;52.416;13.548;2023-06-22T01:05:18;101490.03;;;19.87;100.00
68594;BME280;55563;52.416;13.548;2023-06-22T01:07:34;101487.78;;;19.94;100.00
68594;BME280;55563;52.416;13.548;2023-06-22T01:09:49;101488.78;;;19.84;100.00
68594;BME280;55563;52.416;13.548;2023-06-22T01:11:59;101489.94;;;19.92;100.00
68594;BME280;55563;52.416;13.548;2023-06-22T01:14:11;101493.78;;;19.86;100.00
68594;BME280;55563;52.416;13.548;2023-06-22T01:16:18;101490.88;;;19.60;100.00
68594;BME280;55563;52.416;13.548;2023-06-22T01:18:22;101499.66;;;19.74;100.00
68594;BME280;55563;52.416;13.548;2023-06-22T01:20:27;101495.13;;;19.61;100.00
68594;BME280;55563;52.416;13.548;2023-06-22T01:22:30;101496.59;;;19.53;100.00
68594;BME280;55563;52.416;13.548;2023-06-22T01:29:11;101498.88;;;19.46;100.00
68594;BME280;55563;52.416;13.548;2023-06-22T01:31:17;101501.84;;;19.45;100.00
68594;BME280;55563;52.416;13.548;2023-06-22T01:33:19;101501.56;;;19.46;100.00
68594;BME280;55563;52.416;13.548;2023-06-22T01:35:19;101502.50;;;19.37;100.00
68594;BME280;55563;52.416;13.548;2023-06-22T01:37:21;101509.13;;;19.39;100.00
68594;BME280;55563;52.416;13.548;2023-06-22T01:39:26;101499.38;;;19.48;100.00
68594;BME280;55563;52.416;13.548;2023-06-22T01:41:28;101499.75;;;19.42;100.00
68594;BME280;55563;52.416;13.548;2023-06-22T01:43:30;101510.03;;;19.48;100.00
68594;BME280;55563;52.416;13.548;2023-06-22T01:45:30;101506.03;;;19.18;100.00
68594;BME280;55563;52.416;13.548;2023-06-22T01:47:31;101511.69;;;19.31;100.00
68594;BME280;55563;52.416;13.548;2023-06-22T01:49:32;101516.41;;;19.34;100.00
68594;BME280;55563;52.416;13.548;2023-06-22T01:51:33;101511.53;;;19.54;100.00
68594;BME280;55563;52.416;13.548;2023-06-22T01:53:34;101522.06;;;19.32;100.00
68594;BME280;55563;52.416;13.548;2023-06-22T01:55:34;101528.13;;;19.19;100.00
68594;BME280;55563;52.416;13.548;2023-06-22T01:57:35;101523.75;;;19.42;100.00
68594;BME280;55563;52.416;13.548;2023-06-22T01:59:47;101522.53;;;19.34;100.00
68594;BME280;55563;52.416;13.548;2023-06-22T02:02:01;101521.78;;;19.47;100.00
68594;BME280;55563;52.416;13.548;2023-06-22T02:04:06;101520.53;;;19.12;100.00
68594;BME280;55563;52.416;13.548;2023-06-22T02:06:11;101521.16;;;19.37;100.00
68594;BME280;55563;52.416;13.548;2023-06-22T02:08:20;101530.22;;;19.08;100.00
68594;BME280;55563;52.416;13.548;2023-06-22T02:10:22;101528.91;;;19.06;100.00
68594;BME280;55563;52.416;13.548;2023-06-22T02:12:25;101525.56;;;19.14;100.00
68594;BME280;55563;52.416;13.548;2023-06-22T02:14:28;101530.22;;;19.08;100.00
68594;BME280;55563;52.416;13.548;2023-06-22T02:16:31;101529.72;;;19.06;100.00
68594;BME280;55563;52.416;13.548;2023-06-22T02:18:32;101519.50;;;19.41;100.00
68594;BME280;55563;52.416;13.548;2023-06-22T02:20:37;101533.44;;;19.05;100.00
68594;BME280;55563;52.416;13.548;2023-06-22T02:22:37;101526.97;;;19.25;100.00
68594;BME280;55563;52.416;13.548;2023-06-22T02:24:38;101531.22;;;19.40;100.00
68594;BME280;55563;52.416;13.548;2023-06-22T02:26:39;101545.44;;;19.35;100.00
68594;BME280;55563;52.416;13.548;2023-06-22T02:28:42;101547.22;;;19.26;100.00
68594;BME280;55563;52.416;13.548;2023-06-22T02:30:43;101539.41;;;19.16;100.00
68594;BME280;55563;52.416;13.548;2023-06-22T02:32:44;101541.97;;;19.21;100.00
68594;BME280;55563;52.416;13.548;2023-06-22T02:34:45;101544.44;;;19.17;100.00
68594;BME280;55563;52.416;13.548;2023-06-22T02:36:50;101551.66;;;19.31;100.00
68594;BME280;55563;52.416;13.548;2023-06-22T02:38:52;101545.59;;;19.44;100.00
68594;BME280;55563;52.416;13.548;2023-06-22T02:40:52;101544.56;;;19.40;100.00
68594;BME280;55563;52.416;13.548;2023-06-22T02:42:53;101545.91;;;19.24;100.00
68594;BME280;55563;52.416;13.548;2023-06-22T02:44:53;101546.94;;;19.28;100.00
68594;BME280;55563;52.416;13.548;2023-06-22T02:46:55;101544.78;;;18.97;100.00
68594;BME280;55563;52.416;13.548;2023-06-22T02:48:55;101544.75;;;18.84;100.00
68594;BME280;55563;52.416;13.548;2023-06-22T02:50:56;101544.78;;;18.97;100.00
68594;BME280;55563;52.416;13.548;2023-06-22T02:52:56;101543.66;;;18.66;100.00
68594;BME280;55563;52.416;13.548;2023-06-22T02:54:58;101550.47;;;18.91;100.00
68594;BME280;55563;52.416;13.548;2023-06-22T02:56:59;101553.94;;;18.91;100.00
68594;BME280;55563;52.416;13.548;2023-06-22T02:59:04;101555.34;;;19.02;100.00
68594;BME280;55563;52.416;13.548;2023-06-22T03:01:10;101560.81;;;19.11;100.00
68594;BME280;55563;52.416;13.548;2023-06-22T03:03:15;101556.06;;;19.08;100.00
68594;BME280;55563;52.416;13.548;2023-06-22T03:05:16;101555.75;;;19.09;100.00
68594;BME280;55563;52.416;13.548;2023-06-22T03:07:18;101551.44;;;19.13;100.00
68594;BME280;55563;52.416;13.548;2023-06-22T03:09:19;101549.94;;;19.07;100.00
68594;BME280;55563;52.416;13.548;2023-06-22T03:11:20;101542.75;;;19.08;100.00
68594;BME280;55563;52.416;13.548;2023-06-22T03:13:20;101546.13;;;19.13;100.00
68594;BME280;55563;52.416;13.548;2023-06-22T03:15:21;101555.47;;;19.11;100.00
68594;BME280;55563;52.416;13.548;2023-06-22T03:17:22;101550.47;;;19.23;100.00
68594;BME280;55563;52.416;13.548;2023-06-22T03:19:22;101552.66;;;18.89;100.00
68594;BME280;55563;52.416;13.548;2023-06-22T03:21:23;101558.34;;;19.14;100.00
68594;BME280;55563;52.416;13.548;2023-06-22T03:23:26;101548.22;;;19.30;100.00
68594;BME280;55563;52.416;13.548;2023-06-22T03:25:26;101529.75;;;19.34;100.00
68594;BME280;55563;52.416;13.548;2023-06-22T03:27:28;101537.19;;;19.04;100.00
68594;BME280;55563;52.416;13.548;2023-06-22T03:29:29;101538.22;;;18.90;100.00
68594;BME280;55563;52.416;13.548;2023-06-22T03:31:30;101550.81;;;19.03;100.00
68594;BME280;55563;52.416;13.548;2023-06-22T03:33:31;101546.22;;;18.90;100.00
68594;BME280;55563;52.416;13.548;2023-06-22T03:35:32;101543.31;;;19.05;100.00
68594;BME280;55563;52.416;13.548;2023-06-22T03:37:33;101538.13;;;19.13;100.00
68594;BME280;55563;52.416;13.548;2023-06-22T03:39:34;101548.88;;;19.08;100.00
68594;BME280;55563;52.416;13.548;2023-06-22T03:41:35;101553.72;;;19.20;100.00
68594;BME280;55563;52.416;13.548;2023-06-22T03:43:35;101548.63;;;19.37;100.00
68594;BME280;55563;52.416;13.548;2023-06-22T03:45:38;101561.44;;;19.35;100.00
68594;BME280;55563;52.416;13.548;2023-06-22T03:47:41;101549.72;;;19.91;100.00
68594;BME280;55563;52.416;13.548;2023-06-22T03:49:41;101555.94;;;20.14;100.00
68594;BME280;55563;52.416;13.548;2023-06-22T03:51:42;101544.81;;;20.48;100.00
68594;BME280;55563;52.416;13.548;2023-06-22T03:53:42;101541.00;;;20.62;100.00
68594;BME280;55563;52.416;13.548;2023-06-22T03:55:51;101538.44;;;20.57;100.00
68594;BME280;55563;52.416;13.548;2023-06-22T03:57:52;101534.41;;;20.68;100.00
68594;BME280;55563;52.416;13.548;2023-06-22T03:59:56;101537.66;;;20.57;100.00
68594;BME280;55563;52.416;13.548;2023-06-22T04:01:58;101547.38;;;21.06;100.00
68594;BME280;55563;52.416;13.548;2023-06-22T04:03:58;101544.22;;;21.26;100.00
68594;BME280;55563;52.416;13.548;2023-06-22T04:05:59;101542.47;;;21.52;100.00
68594;BME280;55563;52.416;13.548;2023-06-22T04:07:59;101543.81;;;21.89;100.00
68594;BME280;55563;52.416;13.548;2023-06-22T04:10:00;101547.53;;;22.36;100.00
68594;BME280;55563;52.416;13.548;2023-06-22T04:12:01;101544.41;;;21.77;100.00
68594;BME280;55563;52.416;13.548;2023-06-22T04:14:02;101542.72;;;21.90;100.00
68594;BME280;55563;52.416;13.548;2023-06-22T04:16:02;101547.53;;;22.36;100.00
68594;BME280;55563;52.416;13.548;2023-06-22T04:18:03;101541.66;;;22.94;100.00
68594;BME280;55563;52.416;13.548;2023-06-22T04:20:05;101537.59;;;22.37;100.00
68594;BME280;55563;52.416;13.548;2023-06-22T04:22:06;101541.53;;;22.65;100.00
68594;BME280;55563;52.416;13.548;2023-06-22T04:24:08;101543.19;;;23.21;100.00
68594;BME280;55563;52.416;13.548;2023-06-22T04:26:08;101550.19;;;22.79;100.00
68594;BME280;55563;52.416;13.548;2023-06-22T04:28:09;101541.38;;;22.61;100.00
68594;BME280;55563;52.416;13.548;2023-06-22T04:30:12;101552.25;;;22.56;100.00
68594;BME280;55563;52.416;13.548;2023-06-22T04:32:15;101552.09;;;22.79;100.00
68594;BME280;55563;52.416;13.548;2023-06-22T04:34:16;101550.88;;;23.23;100.00
68594;BME280;55563;52.416;13.548;2023-06-22T04:36:17;101557.94;;;22.72;100.00
68594;BME280;55563;52.416;13.548;2023-06-22T04:38:18;101562.69;;;23.39;100.00
68594;BME280;55563;52.416;13.548;2023-06-22T04:40:18;101559.88;;;23.73;100.00
68594;BME280;55563;52.416;13.548;2023-06-22T04:42:20;101563.38;;;23.65;100.00
68594;BME280;55563;52.416;13.548;2023-06-22T04:44:21;101563.00;;;23.37;100.00
68594;BME280;55563;52.416;13.548;2023-06-22T04:46:24;101568.09;;;23.68;100.00
68594;BME280;55563;52.416;13.548;2023-06-22T04:48:25;101566.47;;;24.67;100.00
68594;BME280;55563;52.416;13.548;2023-06-22T04:50:25;101576.41;;;23.46;100.00
68594;BME280;55563;52.416;13.548;2023-06-22T04:52:26;101575.22;;;24.64;100.00
68594;BME280;55563;52.416;13.548;2023-06-22T04:54:26;101570.31;;;24.46;100.00
68594;BME280;55563;52.416;13.548;2023-06-22T04:56:27;101567.47;;;25.41;100.00
68594;BME280;55563;52.416;13.548;2023-06-22T04:58:29;101562.91;;;24.22;100.00
68594;BME280;55563;52.416;13.548;2023-06-22T05:00:33;101570.00;;;24.26;100.00
68594;BME280;55563;52.416;13.548;2023-06-22T05:02:37;101567.25;;;24.68;100.00
68594;BME280;55563;52.416;13.548;2023-06-22T05:04:38;101567.69;;;24.70;100.00
68594;BME280;55563;52.416;13.548;2023-06-22T05:06:38;101574.31;;;24.60;100.00
68594;BME280;55563;52.416;13.548;2023-06-22T05:08:40;101576.16;;;24.81;100.00
68594;BME280;55563;52.416;13.548;2023-06-22T05:10:41;101571.63;;;24.10;100.00
68594;BME280;55563;52.416;13.548;2023-06-22T05:12:42;101574.53;;;23.76;100.00
68594;BME280;55563;52.416;13.548;2023-06-22T05:14:42;101563.88;;;24.59;100.00
68594;BME280;55563;52.416;13.548;2023-06-22T05:16:44;101563.16;;;25.15;100.00
68594;BME280;55563;52.416;13.548;2023-06-22T05:18:45;101562.06;;;24.30;100.00
68594;BME280;55563;52.416;13.548;2023-06-22T05:20:45;101565.00;;;23.40;100.00
68594;BME280;55563;52.416;13.548;2023-06-22T05:22:46;101568.34;;;23.55;100.00
68594;BME280;55563;52.416;13.548;2023-06-22T05:24:47;101564.25;;;23.49;100.00
68594;BME280;55563;52.416;13.548;2023-06-22T05:26:47;101568.28;;;23.08;100.00
68594;BME280;55563;52.416;13.548;2023-06-22T05:28:48;101569.25;;;23.03;100.00
68594;BME280;55563;52.416;13.548;2023-06-22T05:30:48;101570.69;;;22.49;100.00
68594;BME280;55563;52.416;13.548;2023-06-22T05:32:49;101573.38;;;22.92;100.00
68594;BME280;55563;52.416;13.548;2023-06-22T05:34:49;101579.78;;;23.17;100.00
68594;BME280;55563;52.416;13.548;2023-06-22T05:36:50;101580.81;;;22.87;100.00
68594;BME280;55563;52.416;13.548;2023-06-22T05:38:52;101574.31;;;22.62;100.00
68594;BME280;55563;52.416;13.548;2023-06-22T05:40:52;101574.63;;;22.69;100.00
68594;BME280;55563;52.416;13.548;2023-06-22T05:42:53;101576.06;;;22.67;100.00
68594;BME280;55563;52.416;13.548;2023-06-22T05:44:54;101574.47;;;22.31;100.00
68594;BME280;55563;52.416;13.548;2023-06-22T05:46:55;101576.50;;;22.69;100.00
68594;BME280;55563;52.416;13.548;2023-06-22T05:48:55;101583.59;;;23.16;100.00
68594;BME280;55563;52.416;13.548;2023-06-22T05:50:56;101584.22;;;23.04;100.00
68594;BME280;55563;52.416;13.548;2023-06-22T05:52:57;101598.78;;;23.41;100.00
68594;BME280;55563;52.416;13.548;2023-06-22T05:54:57;101593.50;;;24.50;100.00
68594;BME280;55563;52.416;13.548;2023-06-22T05:56:58;101602.81;;;24.32;100.00
68594;BME280;55563;52.416;13.548;2023-06-22T05:58:58;101609.72;;;23.83;100.00
68594;BME280;55563;52.416;13.548;2023-06-22T06:00:59;101605.75;;;23.42;100.00
68594;BME280;55563;52.416;13.548;2023-06-22T06:03:01;101600.00;;;22.97;100.00
68594;BME280;55563;52.416;13.548;2023-06-22T06:05:03;101598.00;;;22.77;100.00
68594;BME280;55563;52.416;13.548;2023-06-22T06:07:04;101596.28;;;22.73;100.00
68594;BME280;55563;52.416;13.548;2023-06-22T06:09:05;101602.88;;;22.92;100.00
68594;BME280;55563;52.416;13.548;2023-06-22T06:11:08;101603.75;;;23.22;100.00
68594;BME280;55563;52.416;13.548;2023-06-22T06:13:08;101604.81;;;23.38;100.00
68594;BME280;55563;52.416;13.548;2023-06-22T06:15:09;101595.78;;;22.96;100.00
68594;BME280;55563;52.416;13.548;2023-06-22T06:17:10;101593.03;;;23.14;100.00
68594;BME280;55563;52.416;13.548;2023-06-22T06:19:10;101585.00;;;23.14;100.00
68594;BME280;55563;52.416;13.548;2023-06-22T06:21:11;101594.47;;;23.96;100.00
68594;BME280;55563;52.416;13.548;2023-06-22T06:23:12;101584.00;;;24.86;100.00
68594;BME280;55563;52.416;13.548;2023-06-22T06:25:12;101580.06;;;24.50;100.00
68594;BME280;55563;52.416;13.548;2023-06-22T06:27:16;101589.69;;;24.51;100.00
68594;BME280;55563;52.416;13.548;2023-06-22T06:29:19;101581.09;;;24.79;100.00
68594;BME280;55563;52.416;13.548;2023-06-22T06:31:19;101593.47;;;24.92;100.00
68594;BME280;55563;52.416;13.548;2023-06-22T06:33:20;101584.47;;;26.98;100.00
68594;BME280;55563;52.416;13.548;2023-06-22T06:35:21;101591.25;;;25.51;100.00
68594;BME280;55563;52.416;13.548;2023-06-22T06:37:22;101599.06;;;26.41;100.00
68594;BME280;55563;52.416;13.548;2023-06-22T06:39:23;101598.44;;;25.95;99.88
68594;BME280;55563;52.416;13.548;2023-06-22T06:41:24;101594.44;;;25.20;100.00
68594;BME280;55563;52.416;13.548;2023-06-22T06:43:24;101591.75;;;25.65;100.00
68594;BME280;55563;52.416;13.548;2023-06-22T06:45:26;101599.53;;;25.46;100.00
68594;BME280;55563;52.416;13.548;2023-06-22T06:47:29;101594.06;;;25.67;100.00
68594;BME280;55563;52.416;13.548;2023-06-22T06:49:30;101593.63;;;25.65;97.93
68594;BME280;55563;52.416;13.548;2023-06-22T06:51:30;101603.91;;;25.38;99.36
68594;BME280;55563;52.416;13.548;2023-06-22T06:53:31;101591.97;;;25.60;99.40
68594;BME280;55563;52.416;13.548;2023-06-22T06:55:32;101589.50;;;25.55;96.55
68594;BME280;55563;52.416;13.548;2023-06-22T06:57:34;101586.88;;;25.46;96.73
68594;BME280;55563;52.416;13.548;2023-06-22T06:59:35;101585.94;;;26.15;94.47
68594;BME280;55563;52.416;13.548;2023-06-22T07:01:35;101584.25;;;26.63;91.02
68594;BME280;55563;52.416;13.548;2023-06-22T07:03:36;101578.03;;;26.46;91.33
68594;BME280;55563;52.416;13.548;2023-06-22T07:05:37;101584.59;;;28.14;83.56
68594;BME280;55563;52.416;13.548;2023-06-22T07:07:38;101575.53;;;26.14;91.53
68594;BME280;55563;52.416;13.548;2023-06-22T07:09:39;101573.53;;;25.62;92.75
68594;BME280;55563;52.416;13.548;2023-06-22T07:11:40;101570.75;;;25.71;92.45
68594;BME280;55563;52.416;13.548;2023-06-22T07:13:40;101560.19;;;25.90;90.37
68594;BME280;55563;52.416;13.548;2023-06-22T07:15:41;101558.19;;;26.95;89.19
68594;BME280;55563;52.416;13.548;2023-06-22T07:17:42;101543.63;;;29.16;72.18
68594;BME280;55563;52.416;13.548;2023-06-22T07:19:43;101550.00;;;28.62;73.18
68594;BME280;55563;52.416;13.548;2023-06-22T07:21:43;101548.84;;;26.64;80.55
68594;BME280;55563;52.416;13.548;2023-06-22T07:23:44;101548.00;;;27.51;77.99
68594;BME280;55563;52.416;13.548;2023-06-22T07:25:44;101549.19;;;26.63;83.60
68594;BME280;55563;52.416;13.548;2023-06-22T07:27:56;101548.25;;;26.43;88.38
68594;BME280;55563;52.416;13.548;2023-06-22T07:29:57;101549.19;;;26.35;83.22
68594;BME280;55563;52.416;13.548;2023-06-22T07:31:57;101542.63;;;26.48;83.00
68594;BME280;55563;52.416;13.548;2023-06-22T07:33:58;101548.69;;;26.05;90.34
68594;BME280;55563;52.416;13.548;2023-06-22T07:35:59;101549.22;;;25.71;92.52
68594;BME280;55563;52.416;13.548;2023-06-22T07:37:59;101547.06;;;25.64;92.50
68594;BME280;55563;52.416;13.548;2023-06-22T07:40:00;101545.78;;;25.37;90.61
68594;BME280;55563;52.416;13.548;2023-06-22T07:42:01;101544.34;;;25.76;90.36
68594;BME280;55563;52.416;13.548;2023-06-22T07:44:02;101540.06;;;25.14;92.57
68594;BME280;55563;52.416;13.548;2023-06-22T07:46:03;101548.28;;;25.30;91.14
68594;BME280;55563;52.416;13.548;2023-06-22T07:48:04;101546.00;;;25.08;92.40
68594;BME280;55563;52.416;13.548;2023-06-22T07:50:06;101546.81;;;25.21;94.92
68594;BME280;55563;52.416;13.548;2023-06-22T07:52:07;101543.47;;;24.91;94.78
68594;BME280;55563;52.416;13.548;2023-06-22T07:54:09;101543.84;;;24.68;94.38
68594;BME280;55563;52.416;13.548;2023-06-22T07:56:10;101541.16;;;24.36;95.81
68594;BME280;55563;52.416;13.548;2023-06-22T07:58:11;101541.94;;;24.69;96.68
68594;BME280;55563;52.416;13.548;2023-06-22T08:00:12;101539.56;;;24.55;97.92
68594;BME280;55563;52.416;13.548;2023-06-22T08:02:17;101543.28;;;24.75;97.05
68594;BME280;55563;52.416;13.548;2023-06-22T08:04:17;101540.69;;;24.66;99.45
68594;BME280;55563;52.416;13.548;2023-06-22T08:06:21;101543.34;;;24.54;95.31
68594;BME280;55563;52.416;13.548;2023-06-22T08:08:22;101548.13;;;24.69;96.21
68594;BME280;55563;52.416;13.548;2023-06-22T08:10:23;101545.28;;;24.87;95.02
68594;BME280;55563;52.416;13.548;2023-06-22T08:12:23;101552.59;;;24.98;95.61
68594;BME280;55563;52.416;13.548;2023-06-22T08:14:26;101554.84;;;24.75;95.00
68594;BME280;55563;52.416;13.548;2023-06-22T08:16:27;101546.88;;;25.00;91.58
68594;BME280;55563;52.416;13.548;2023-06-22T08:18:27;101548.44;;;24.68;91.81
68594;BME280;55563;52.416;13.548;2023-06-22T08:20:28;101556.41;;;24.97;93.69
68594;BME280;55563;52.416;13.548;2023-06-22T08:22:29;101545.34;;;24.78;88.71
68594;BME280;55563;52.416;13.548;2023-06-22T08:24:30;101544.63;;;24.69;90.03
68594;BME280;55563;52.416;13.548;2023-06-22T08:26:31;101551.44;;;24.87;87.99
68594;BME280;55563;52.416;13.548;2023-06-22T08:28:36;101542.16;;;24.64;88.24
68594;BME280;55563;52.416;13.548;2023-06-22T08:30:36;101543.06;;;25.01;89.31
68594;BME280;55563;52.416;13.548;2023-06-22T08:32:37;101534.53;;;24.66;88.89
68594;BME280;55563;52.416;13.548;2023-06-22T08:34:38;101537.56;;;24.64;88.78
68594;BME280;55563;52.416;13.548;2023-06-22T08:36:42;101535.88;;;24.60;91.71
68594;BME280;55563;52.416;13.548;2023-06-22T08:38:43;101536.38;;;24.74;92.67
68594;BME280;55563;52.416;13.548;2023-06-22T08:40:45;101527.84;;;24.72;89.00
68594;BME280;55563;52.416;13.548;2023-06-22T08:42:46;101534.22;;;24.67;90.77
68594;BME280;55563;52.416;13.548;2023-06-22T08:44:47;101534.13;;;24.76;88.24
68594;BME280;55563;52.416;13.548;2023-06-22T08:46:48;101540.38;;;24.89;90.09
68594;BME280;55563;52.416;13.548;2023-06-22T08:48:49;101535.69;;;24.77;88.70
68594;BME280;55563;52.416;13.548;2023-06-22T08:50:50;101535.47;;;24.82;90.95
68594;BME280;55563;52.416;13.548;2023-06-22T08:52:51;101540.53;;;25.16;92.72
68594;BME280;55563;52.416;13.548;2023-06-22T08:54:52;101536.81;;;25.21;90.12
68594;BME280;55563;52.416;13.548;2023-06-22T08:56:53;101525.59;;;25.19;86.37
68594;BME280;55563;52.416;13.548;2023-06-22T08:58:53;101541.22;;;25.50;88.20
68594;BME280;55563;52.416;13.548;2023-06-22T09:00:54;101530.78;;;25.36;84.58
68594;BME280;55563;52.416;13.548;2023-06-22T09:02:54;101539.06;;;25.31;83.16
68594;BME280;55563;52.416;13.548;2023-06-22T09:04:59;101542.22;;;25.21;83.82
68594;BME280;55563;52.416;13.548;2023-06-22T09:07:01;101534.94;;;25.46;80.44
68594;BME280;55563;52.416;13.548;2023-06-22T09:09:02;101536.25;;;25.52;78.50
68594;BME280;55563;52.416;13.548;2023-06-22T09:11:03;101530.47;;;25.62;78.22
68594;BME280;55563;52.416;13.548;2023-06-22T09:13:04;101522.75;;;26.00;75.95
68594;BME280;55563;52.416;13.548;2023-06-22T09:15:05;101530.03;;;26.12;74.90
68594;BME280;55563;52.416;13.548;2023-06-22T09:17:09;101520.00;;;25.85;72.82
68594;BME280;55563;52.416;13.548;2023-06-22T09:19:10;101517.19;;;26.33;75.60
68594;BME280;55563;52.416;13.548;2023-06-22T09:21:11;101523.63;;;26.17;71.00
68594;BME280;55563;52.416;13.548;2023-06-22T09:23:12;101519.03;;;26.05;71.36
68594;BME280;55563;52.416;13.548;2023-06-22T09:25:12;101519.63;;;25.98;67.96
68594;BME280;55563;52.416;13.548;2023-06-22T09:27:13;101517.88;;;25.78;68.60
68594;BME280;55563;52.416;13.548;2023-06-22T09:29:14;101512.22;;;25.95;74.09
68594;BME280;55563;52.416;13.548;2023-06-22T09:31:15;101523.50;;;26.53;75.53
68594;BME280;55563;52.416;13.548;2023-06-22T09:33:16;101514.81;;;25.92;71.13
68594;BME280;55563;52.416;13.548;2023-06-22T09:35:20;101515.50;;;25.89;68.36
68594;BME280;55563;52.416;13.548;2023-06-22T09:37:20;101521.16;;;25.59;68.43
68594;BME280;55563;52.416;13.548;2023-06-22T09:39:21;101516.91;;;25.71;69.48
68594;BME280;55563;52.416;13.548;2023-06-22T09:41:22;101524.84;;;25.67;67.88
68594;BME280;55563;52.416;13.548;2023-06-22T09:43:23;101514.59;;;25.97;69.28
68594;BME280;55563;52.416;13.548;2023-06-22T09:45:23;101515.50;;;25.52;66.50
68594;BME280;55563;52.416;13.548;2023-06-22T09:47:24;101516.06;;;25.82;68.07
68594;BME280;55563;52.416;13.548;2023-06-22T09:49:24;101518.38;;;25.56;68.03
68594;BME280;55563;52.416;13.548;2023-06-22T09:51:25;101519.91;;;25.57;69.30
68594;BME280;55563;52.416;13.548;2023-06-22T09:53:26;101516.22;;;25.74;69.89
68594;BME280;55563;52.416;13.548;2023-06-22T09:55:26;101509.94;;;25.57;67.37
68594;BME280;55563;52.416;13.548;2023-06-22T09:57:27;101513.94;;;25.88;72.47
68594;BME280;55563;52.416;13.548;2023-06-22T09:59:27;101511.88;;;25.97;74.20
68594;BME280;55563;52.416;13.548;2023-06-22T10:01:28;101513.31;;;26.07;67.75
68594;BME280;55563;52.416;13.548;2023-06-22T10:03:29;101510.25;;;26.20;68.34
68594;BME280;55563;52.416;13.548;2023-06-22T10:05:29;101508.16;;;26.14;68.13
68594;BME280;55563;52.416;13.548;2023-06-22T10:07:30;101512.63;;;26.22;67.82
68594;BME280;55563;52.416;13.548;2023-06-22T10:09:31;101506.50;;;25.97;68.52
68594;BME280;55563;52.416;13.548;2023-06-22T10:11:31;101510.22;;;25.92;68.72
68594;BME280;55563;52.416;13.548;2023-06-22T10:13:35;101508.00;;;25.82;66.79
68594;BME280;55563;52.416;13.548;2023-06-22T10:15:35;101504.38;;;25.90;71.93
68594;BME280;55563;52.416;13.548;2023-06-22T10:17:36;101511.72;;;26.18;70.09
68594;BME280;55563;52.416;13.548;2023-06-22T10:19:37;101512.50;;;25.66;70.65
68594;BME280;55563;52.416;13.548;2023-06-22T10:21:38;101507.72;;;26.39;75.26
68594;BME280;55563;52.416;13.548;2023-06-22T10:23:39;101505.56;;;26.17;69.40
68594;BME280;55563;52.416;13.548;2023-06-22T10:25:40;101504.59;;;25.85;68.47